createdAt,value
2022-10-01T00:02:37.442Z,14.10
2022-10-01T00:05:39.335Z,14.10
2022-10-01T00:08:42.460Z,14.20
2022-10-01T00:11:44.520Z,14.20
2022-10-01T00:14:46.373Z,14.20
2022-10-01T00:17:48.544Z,14.10
2022-10-01T00:24:01.904Z,14.00
2022-10-01T00:27:04.098Z,13.90
2022-10-01T00:30:07.455Z,13.80
2022-10-01T00:33:09.544Z,13.80
2022-10-01T00:36:12.086Z,13.70
2022-10-01T00:39:13.846Z,13.70
2022-10-01T00:42:20.361Z,13.60
2022-10-01T00:45:22.280Z,13.60
2022-10-01T00:48:25.583Z,13.50
2022-10-01T00:51:31.905Z,13.60
2022-10-01T00:54:46.781Z,13.60
2022-10-01T01:00:53.927Z,13.70
2022-10-01T01:03:56.889Z,13.60
2022-10-01T01:07:01.913Z,13.70
2022-10-01T01:10:05.307Z,13.70
2022-10-01T01:13:20.078Z,13.70
2022-10-01T01:16:24.671Z,13.70
2022-10-01T01:19:46.539Z,13.70
2022-10-01T01:23:06.172Z,13.80
2022-10-01T01:26:31.273Z,13.80
2022-10-01T01:29:45.614Z,13.90
2022-10-01T01:33:01.219Z,13.90
2022-10-01T01:36:31.793Z,13.90
2022-10-01T01:39:34.497Z,13.90
2022-10-01T01:42:39.182Z,13.90
2022-10-01T01:45:42.198Z,13.80
2022-10-01T01:48:46.183Z,13.80
2022-10-01T01:51:56.773Z,13.80
2022-10-01T01:54:58.704Z,13.80
2022-10-01T01:58:01.117Z,13.80
2022-10-01T02:01:03.436Z,13.80
2022-10-01T02:04:13.949Z,13.90
2022-10-01T02:11:14.706Z,13.90
2022-10-01T02:14:24.759Z,13.90
2022-10-01T02:17:43.229Z,13.90
2022-10-01T02:21:03.090Z,13.90
2022-10-01T02:24:11.126Z,14.00
2022-10-01T02:27:19.592Z,14.00
2022-10-01T02:33:26.252Z,13.90
2022-10-01T02:36:30.408Z,13.90
2022-10-01T02:42:36.102Z,13.90
2022-10-01T02:45:40.825Z,13.90
2022-10-01T02:48:43.455Z,13.80
2022-10-01T02:52:04.194Z,13.80
2022-10-01T02:55:16.172Z,13.80
2022-10-01T02:58:19.335Z,13.80
2022-10-01T03:01:21.321Z,13.80
2022-10-01T03:04:23.240Z,13.70
2022-10-01T03:07:26.878Z,13.70
2022-10-01T03:10:28.728Z,13.80
2022-10-01T03:13:30.556Z,13.80
2022-10-01T03:16:32.983Z,13.80
2022-10-01T03:25:39.414Z,13.80
2022-10-01T03:37:48.313Z,13.70
2022-10-01T03:43:56.023Z,13.70
2022-10-01T03:47:00.322Z,13.70
2022-10-01T03:50:02.156Z,13.70
2022-10-01T03:53:04.398Z,13.70
2022-10-01T03:56:06.626Z,13.60
2022-10-01T03:59:09.946Z,13.60
2022-10-01T04:02:11.876Z,13.60
2022-10-01T04:05:13.840Z,13.60
2022-10-01T04:08:17.224Z,13.60
2022-10-01T04:11:20.626Z,13.60
2022-10-01T04:14:22.474Z,13.60
2022-10-01T04:17:24.333Z,13.50
2022-10-01T04:20:26.172Z,13.50
2022-10-01T04:23:28.053Z,13.40
2022-10-01T04:29:33.923Z,13.50
2022-10-01T04:35:41.327Z,13.50
2022-10-01T04:41:45.479Z,13.50
2022-10-01T04:47:51.384Z,13.50
2022-10-01T04:50:53.302Z,13.50
2022-10-01T04:53:55.154Z,13.50
2022-10-01T04:56:57.350Z,13.20
2022-10-01T04:59:59.741Z,13.40
2022-10-01T05:03:01.679Z,13.40
2022-10-01T05:06:03.663Z,13.40
2022-10-01T05:12:07.743Z,13.50
2022-10-01T05:21:15.069Z,13.70
2022-10-01T05:24:16.916Z,13.70
2022-10-01T05:30:21.543Z,13.70
2022-10-01T05:33:23.391Z,13.80
2022-10-01T05:36:25.280Z,13.70
2022-10-01T05:39:27.110Z,13.70
2022-10-01T05:42:28.973Z,13.60
2022-10-01T05:45:31.693Z,13.70
2022-10-01T05:48:33.608Z,13.70
2022-10-01T05:51:35.636Z,13.80
2022-10-01T06:00:43.058Z,13.80
2022-10-01T06:03:44.833Z,13.90
2022-10-01T06:09:48.889Z,13.90
2022-10-01T06:12:51.274Z,14.00
2022-10-01T06:15:53.384Z,14.00
2022-10-01T06:21:57.463Z,14.30
2022-10-01T06:24:59.322Z,14.30
2022-10-01T06:28:02.068Z,14.50
2022-10-01T06:31:04.220Z,14.50
2022-10-01T06:34:06.111Z,14.60
2022-10-01T06:40:10.473Z,14.70
2022-10-01T06:43:12.319Z,14.90
2022-10-01T06:46:14.255Z,15.10
2022-10-01T06:52:18.388Z,15.00
2022-10-01T06:55:23.718Z,14.80
2022-10-01T07:01:28.366Z,14.90
2022-10-01T07:07:34.304Z,14.90
2022-10-01T07:13:38.443Z,15.30
2022-10-01T07:16:40.334Z,15.50
2022-10-01T07:19:42.268Z,15.90
2022-10-01T07:22:45.177Z,15.80
2022-10-01T07:28:49.276Z,15.70
2022-10-01T07:31:56.096Z,16.10
2022-10-01T07:34:58.474Z,16.40
2022-10-01T07:38:04.175Z,16.80
2022-10-01T07:41:06.120Z,16.50
2022-10-01T07:44:07.980Z,16.50
2022-10-01T07:47:10.025Z,16.60
2022-10-01T07:50:11.857Z,16.70
2022-10-01T07:53:13.913Z,16.60
2022-10-01T07:56:15.734Z,16.30
2022-10-01T07:59:17.642Z,16.00
2022-10-01T08:05:28.609Z,16.10
2022-10-01T08:08:33.353Z,16.10
2022-10-01T08:17:41.424Z,16.30
2022-10-01T08:20:43.196Z,16.30
2022-10-01T08:23:45.095Z,16.50
2022-10-01T08:26:52.414Z,16.60
2022-10-01T08:29:55.118Z,16.60
2022-10-01T08:32:58.590Z,16.80
2022-10-01T08:36:05.448Z,16.50
2022-10-01T08:39:07.554Z,16.50
2022-10-01T08:42:21.694Z,16.60
2022-10-01T08:45:49.228Z,16.90
2022-10-01T08:49:32.318Z,16.80
2022-10-01T08:52:41.845Z,16.90
2022-10-01T08:55:44.146Z,17.40
2022-10-01T08:58:52.670Z,17.30
2022-10-01T09:01:56.242Z,17.10
2022-10-01T09:05:06.841Z,17.20
2022-10-01T09:08:24.475Z,17.60
2022-10-01T09:12:00.696Z,17.60
2022-10-01T09:15:22.760Z,17.60
2022-10-01T09:18:53.965Z,17.40
2022-10-01T09:22:01.291Z,17.30
2022-10-01T09:25:08.988Z,17.80
2022-10-01T09:28:16.960Z,18.10
2022-10-01T09:31:26.955Z,18.40
2022-10-01T09:34:39.490Z,18.30
2022-10-01T09:38:25.841Z,17.70
2022-10-01T09:41:27.753Z,18.00
2022-10-01T09:44:32.481Z,18.10
2022-10-01T09:47:34.357Z,18.30
2022-10-01T09:50:43.939Z,18.30
2022-10-01T09:53:45.961Z,18.00
2022-10-01T09:57:22.880Z,18.10
2022-10-01T10:00:26.567Z,18.60
2022-10-01T10:03:31.425Z,18.90
2022-10-01T10:06:33.819Z,18.60
2022-10-01T10:09:35.997Z,18.70
2022-10-01T10:12:37.996Z,18.40
2022-10-01T10:15:49.783Z,18.60
2022-10-01T10:18:54.185Z,19.30
2022-10-01T10:22:12.438Z,19.10
2022-10-01T10:25:22.344Z,19.30
2022-10-01T10:28:24.589Z,19.50
2022-10-01T10:31:46.369Z,19.00
2022-10-01T10:34:48.377Z,18.90
2022-10-01T10:37:53.051Z,18.80
2022-10-01T10:40:55.115Z,18.70
2022-10-01T10:44:04.497Z,19.10
2022-10-01T10:47:14.807Z,19.40
2022-10-01T10:50:33.183Z,19.90
2022-10-01T10:53:45.689Z,20.60
2022-10-01T10:57:02.541Z,20.20
2022-10-01T11:00:21.996Z,20.30
2022-10-01T11:03:27.854Z,20.90
2022-10-01T11:06:29.880Z,20.90
2022-10-01T11:09:53.941Z,20.80
2022-10-01T11:13:28.224Z,20.80
2022-10-01T11:16:40.024Z,21.60
2022-10-01T11:20:07.260Z,21.50
2022-10-01T11:23:34.180Z,21.00
2022-10-01T11:26:53.653Z,21.60
2022-10-01T11:29:58.325Z,21.40
2022-10-01T11:33:33.360Z,21.50
2022-10-01T11:36:55.364Z,21.60
2022-10-01T11:40:01.762Z,22.30
2022-10-01T11:43:38.906Z,22.30
2022-10-01T11:47:03.765Z,22.30
2022-10-01T11:50:25.384Z,22.10
2022-10-01T11:53:39.911Z,22.60
2022-10-01T11:56:50.300Z,21.90
2022-10-01T12:00:07.387Z,22.20
2022-10-01T12:03:17.843Z,22.30
2022-10-01T12:06:51.745Z,22.50
2022-10-01T12:10:05.740Z,22.70
2022-10-01T12:13:13.234Z,22.60
2022-10-01T12:16:36.700Z,23.30
2022-10-01T12:19:44.273Z,23.10
2022-10-01T12:22:47.523Z,22.60
2022-10-01T12:26:25.149Z,22.60
2022-10-01T12:29:47.659Z,22.90
2022-10-01T12:33:16.026Z,22.40
2022-10-01T12:36:38.797Z,23.20
2022-10-01T12:39:46.577Z,22.90
2022-10-01T12:42:48.396Z,23.20
2022-10-01T12:46:23.915Z,23.30
2022-10-01T12:49:56.308Z,23.40
2022-10-01T12:53:19.892Z,23.00
2022-10-01T12:56:32.252Z,22.10
2022-10-01T12:59:42.866Z,23.10
2022-10-01T13:03:03.301Z,23.10
2022-10-01T13:06:10.765Z,23.00
2022-10-01T13:09:48.614Z,22.90
2022-10-01T13:13:12.294Z,23.10
2022-10-01T13:16:40.882Z,23.50
2022-10-01T13:20:23.960Z,22.60
2022-10-01T13:23:39.852Z,23.30
2022-10-01T13:26:52.138Z,23.60
2022-10-01T13:29:59.777Z,23.40
2022-10-01T13:33:01.728Z,23.10
2022-10-01T13:36:06.016Z,23.40
2022-10-01T13:39:23.833Z,22.50
2022-10-01T13:42:31.113Z,22.20
2022-10-01T13:45:40.670Z,22.10
2022-10-01T13:48:47.077Z,22.10
2022-10-01T13:51:49.066Z,22.30
2022-10-01T13:54:54.867Z,22.80
2022-10-01T13:58:19.565Z,22.70
2022-10-01T14:01:24.019Z,22.60
2022-10-01T14:04:40.943Z,22.10
2022-10-01T14:07:45.369Z,22.10
2022-10-01T14:11:01.521Z,22.00
2022-10-01T14:14:25.688Z,21.90
2022-10-01T14:17:32.556Z,21.80
2022-10-01T14:21:07.508Z,21.80
2022-10-01T14:24:21.389Z,21.90
2022-10-01T14:27:41.685Z,22.00
2022-10-01T14:31:03.268Z,22.10
2022-10-01T14:34:05.108Z,22.10
2022-10-01T14:37:16.202Z,22.10
2022-10-01T14:40:22.520Z,21.80
2022-10-01T14:43:26.688Z,21.80
2022-10-01T14:46:28.644Z,21.80
2022-10-01T14:49:32.457Z,21.80
2022-10-01T14:55:36.637Z,21.60
2022-10-01T14:58:43.217Z,21.50
2022-10-01T15:01:55.420Z,21.20
2022-10-01T15:04:57.836Z,20.80
2022-10-01T15:08:10.334Z,20.80
2022-10-01T15:11:17.528Z,20.70
2022-10-01T15:14:23.810Z,20.50
2022-10-01T15:17:27.357Z,20.20
2022-10-01T15:20:29.241Z,20.10
2022-10-01T15:23:33.759Z,20.20
2022-10-01T15:26:36.042Z,20.10
2022-10-01T15:29:43.119Z,20.20
2022-10-01T15:32:47.698Z,20.10
2022-10-01T15:35:50.067Z,20.10
2022-10-01T15:38:53.192Z,20.20
2022-10-01T15:45:06.771Z,20.10
2022-10-01T15:48:28.118Z,20.20
2022-10-01T15:54:32.685Z,20.70
2022-10-01T15:57:38.053Z,19.60
2022-10-01T16:01:00.341Z,20.00
2022-10-01T16:04:04.444Z,19.80
2022-10-01T16:07:06.487Z,19.70
2022-10-01T16:10:25.441Z,19.50
2022-10-01T16:13:38.898Z,19.30
2022-10-01T16:19:51.377Z,18.70
2022-10-01T16:23:32.390Z,18.40
2022-10-01T16:26:37.063Z,18.30
2022-10-01T16:29:39.998Z,17.80
2022-10-01T16:32:41.864Z,17.70
2022-10-01T16:35:47.170Z,17.50
2022-10-01T16:42:11.986Z,17.30
2022-10-01T16:45:15.653Z,17.20
2022-10-01T16:48:20.454Z,17.00
2022-10-01T16:51:22.749Z,16.80
2022-10-01T16:54:26.707Z,16.70
2022-10-01T16:57:28.521Z,16.50
2022-10-01T17:00:30.959Z,16.40
2022-10-01T17:03:32.761Z,16.40
2022-10-01T17:06:34.880Z,16.40
2022-10-01T17:09:36.940Z,16.30
2022-10-01T17:12:40.146Z,16.20
2022-10-01T17:15:42.505Z,16.10
2022-10-01T17:18:44.378Z,16.10
2022-10-01T17:21:46.524Z,15.90
2022-10-01T17:24:48.900Z,15.90
2022-10-01T17:27:51.279Z,15.70
2022-10-01T17:30:53.178Z,15.70
2022-10-01T17:33:55.002Z,15.50
2022-10-01T17:36:56.944Z,15.50
2022-10-01T17:39:58.920Z,15.60
2022-10-01T17:43:00.790Z,15.60
2022-10-01T17:49:05.279Z,16.40
2022-10-01T17:52:07.137Z,15.50
2022-10-01T17:55:09.722Z,15.40
2022-10-01T17:58:11.789Z,15.30
2022-10-01T18:01:17.510Z,15.20
2022-10-01T18:04:19.400Z,15.30
2022-10-01T18:07:21.294Z,15.10
2022-10-01T18:10:23.201Z,15.20
2022-10-01T18:13:25.054Z,15.10
2022-10-01T18:16:27.511Z,15.10
2022-10-01T18:22:51.453Z,14.90
2022-10-01T18:25:53.353Z,14.80
2022-10-01T18:28:55.233Z,14.80
2022-10-01T18:32:31.312Z,16.20
2022-10-01T18:35:35.127Z,14.80
2022-10-01T18:38:40.259Z,14.60
2022-10-01T18:41:42.679Z,14.70
2022-10-01T18:44:45.702Z,14.60
2022-10-01T18:48:08.058Z,14.70
2022-10-01T18:51:12.625Z,14.60
2022-10-01T18:54:30.711Z,14.90
2022-10-01T18:57:52.469Z,14.90
2022-10-01T19:01:23.444Z,14.70
2022-10-01T19:05:06.260Z,14.80
2022-10-01T19:08:13.924Z,14.70
2022-10-01T19:11:27.256Z,14.60
2022-10-01T19:14:46.279Z,14.50
2022-10-01T19:17:51.137Z,14.40
2022-10-01T19:21:02.861Z,14.30
2022-10-01T19:24:15.136Z,14.30
2022-10-01T19:27:41.998Z,14.80
2022-10-01T19:30:46.668Z,14.70
2022-10-01T19:34:22.906Z,14.10
2022-10-01T19:37:33.998Z,14.10
2022-10-01T19:41:00.026Z,14.00
2022-10-01T19:44:15.602Z,14.10
2022-10-01T19:47:40.802Z,13.90
2022-10-01T19:50:46.413Z,13.90
2022-10-01T19:53:55.256Z,13.80
2022-10-01T19:57:05.733Z,13.70
2022-10-01T20:00:19.902Z,13.70
2022-10-01T20:03:33.977Z,13.60
2022-10-01T20:06:39.196Z,13.70
2022-10-01T20:09:47.278Z,13.80
2022-10-01T20:12:56.171Z,13.70
2022-10-01T20:16:27.567Z,13.80
2022-10-01T20:19:45.444Z,13.80
2022-10-01T20:23:27.643Z,13.80
2022-10-01T20:27:26.601Z,13.80
2022-10-01T20:30:33.239Z,14.20
2022-10-01T20:33:50.847Z,13.80
2022-10-01T20:37:26.627Z,13.90
2022-10-01T20:40:45.090Z,13.80
2022-10-01T20:43:58.725Z,13.80
2022-10-01T20:47:06.517Z,13.60
2022-10-01T20:50:42.321Z,13.70
2022-10-01T20:53:55.206Z,13.50
2022-10-01T20:57:05.973Z,13.40
2022-10-01T21:00:16.682Z,13.50
2022-10-01T21:03:32.237Z,13.40
2022-10-01T21:06:39.813Z,13.40
2022-10-01T21:09:47.014Z,13.20
2022-10-01T21:13:00.901Z,13.10
2022-10-01T21:16:16.322Z,13.10
2022-10-01T21:19:53.061Z,13.20
2022-10-01T21:26:23.040Z,12.90
2022-10-01T21:29:34.622Z,12.90
2022-10-01T21:33:02.302Z,13.00
2022-10-01T21:36:35.155Z,13.00
2022-10-01T21:39:55.588Z,12.90
2022-10-01T21:43:03.374Z,12.90
2022-10-01T21:46:08.324Z,12.90
2022-10-01T21:49:51.165Z,12.90
2022-10-01T21:53:05.138Z,12.90
2022-10-01T21:56:12.771Z,12.90
2022-10-01T21:59:35.234Z,12.80
2022-10-01T22:02:46.409Z,12.70
2022-10-01T22:06:16.236Z,12.70
2022-10-01T22:09:48.864Z,12.70
2022-10-01T22:12:52.548Z,12.80
2022-10-01T22:15:59.149Z,12.60
2022-10-01T22:19:06.883Z,12.60
2022-10-01T22:22:14.449Z,12.60
2022-10-01T22:25:16.641Z,12.90
2022-10-01T22:28:23.422Z,12.70
2022-10-01T22:31:30.585Z,12.70
2022-10-01T22:34:37.579Z,12.80
2022-10-01T22:37:53.573Z,12.70
2022-10-01T22:41:06.654Z,12.80
2022-10-01T22:44:18.949Z,12.70
2022-10-01T22:47:46.823Z,12.70
2022-10-01T22:51:09.793Z,12.80
2022-10-01T22:54:47.532Z,12.70
2022-10-01T22:58:13.664Z,12.80
2022-10-01T23:01:32.322Z,12.80
2022-10-01T23:05:09.266Z,12.80
2022-10-01T23:08:25.631Z,12.70
2022-10-01T23:11:47.279Z,12.90
2022-10-01T23:15:01.850Z,12.90
2022-10-01T23:18:31.695Z,12.90
2022-10-01T23:21:50.559Z,13.00
2022-10-01T23:25:15.428Z,13.10
2022-10-01T23:28:32.066Z,13.10
2022-10-01T23:31:43.469Z,13.20
2022-10-01T23:34:57.334Z,13.10
2022-10-01T23:38:17.665Z,13.20
2022-10-01T23:41:27.950Z,12.70
2022-10-01T23:44:44.320Z,12.90
2022-10-01T23:47:53.340Z,12.80
2022-10-01T23:51:33.376Z,12.80
2022-10-01T23:54:58.934Z,12.70
2022-10-01T23:58:03.347Z,12.60
